createdAt,value
2022-12-25T00:01:42.213Z,10.30
2022-12-25T00:06:44.864Z,13.27
2022-12-25T00:11:47.497Z,9.40
2022-12-25T00:16:50.156Z,8.23
2022-12-25T00:21:52.713Z,11.88
2022-12-25T00:26:55.255Z,6.57
2022-12-25T00:31:57.904Z,12.23
2022-12-25T00:37:00.471Z,8.90
2022-12-25T00:42:21.375Z,9.23
2022-12-25T00:47:24.274Z,13.60
2022-12-25T00:52:26.931Z,34.45
2022-12-25T00:57:29.528Z,13.25
2022-12-25T01:02:32.174Z,13.60
2022-12-25T01:07:34.857Z,13.00
2022-12-25T01:12:41.799Z,5.18
2022-12-25T01:17:44.946Z,7.78
2022-12-25T01:22:47.937Z,3.35
2022-12-25T01:27:50.467Z,5.70
2022-12-25T01:32:53.034Z,3.60
2022-12-25T01:37:55.780Z,4.30
2022-12-25T01:42:58.499Z,13.32
2022-12-25T01:48:06.032Z,17.52
2022-12-25T01:53:08.938Z,9.25
2022-12-25T01:58:11.679Z,8.52
2022-12-25T02:03:14.723Z,8.40
2022-12-25T02:08:19.506Z,7.35
2022-12-25T02:13:22.154Z,6.43
2022-12-25T02:18:44.663Z,6.43
2022-12-25T02:24:04.972Z,14.02
2022-12-25T02:29:27.001Z,14.40
2022-12-25T02:35:00.996Z,14.82
2022-12-25T02:40:16.464Z,12.48
2022-12-25T02:45:46.769Z,7.87
2022-12-25T02:51:09.078Z,9.68
2022-12-25T02:56:30.572Z,6.70
2022-12-25T03:01:56.331Z,3.53
2022-12-25T03:07:22.499Z,5.00
2022-12-25T03:12:42.301Z,5.97
2022-12-25T03:17:45.134Z,6.50
2022-12-25T03:23:07.086Z,11.63
2022-12-25T03:28:09.619Z,9.35
2022-12-25T03:33:45.442Z,6.95
2022-12-25T03:39:53.303Z,4.38
2022-12-25T03:46:03.017Z,5.97
2022-12-25T03:51:30.381Z,2.78
2022-12-25T03:56:52.473Z,80.45
2022-12-25T04:02:13.700Z,15.52
2022-12-25T04:07:35.272Z,3.42
2022-12-25T04:12:56.320Z,4.57
2022-12-25T04:18:17.668Z,3.15
2022-12-25T04:23:38.659Z,2.05
2022-12-25T04:28:59.786Z,2.90
2022-12-25T04:34:21.793Z,2.30
2022-12-25T04:39:24.367Z,2.03
2022-12-25T04:44:27.155Z,5.15
2022-12-25T04:49:29.935Z,2.08
2022-12-25T04:54:32.545Z,2.85
2022-12-25T04:59:35.195Z,1.25
2022-12-25T05:04:37.773Z,1.83
2022-12-25T05:09:41.849Z,3.72
2022-12-25T05:14:44.540Z,2.50
2022-12-25T05:19:47.126Z,1.58
2022-12-25T05:24:49.644Z,1.60
2022-12-25T05:29:52.169Z,5.82
2022-12-25T05:34:54.880Z,5.65
2022-12-25T05:39:57.443Z,4.63
2022-12-25T05:44:59.967Z,5.45
2022-12-25T05:50:03.240Z,5.28
2022-12-25T05:55:06.494Z,5.00
2022-12-25T06:00:10.148Z,5.07
2022-12-25T06:05:15.057Z,2.55
2022-12-25T06:10:17.843Z,1.38
2022-12-25T06:15:20.458Z,1.33
2022-12-25T06:20:22.968Z,3.97
2022-12-25T06:25:25.606Z,3.72
2022-12-25T06:30:28.224Z,6.40
2022-12-25T06:35:30.803Z,3.53
2022-12-25T06:40:34.261Z,3.67
2022-12-25T06:45:37.035Z,5.53
2022-12-25T06:50:44.431Z,7.72
2022-12-25T06:55:46.964Z,5.93
2022-12-25T07:00:49.558Z,8.82
2022-12-25T07:05:52.200Z,15.38
2022-12-25T07:10:55.965Z,12.85
2022-12-25T07:16:03.902Z,18.70
2022-12-25T07:21:12.923Z,58.70
2022-12-25T07:26:17.437Z,36.95
2022-12-25T07:31:20.089Z,38.75
2022-12-25T07:36:22.706Z,30.15
2022-12-25T07:41:25.372Z,41.20
2022-12-25T07:46:36.984Z,14.13
2022-12-25T07:51:39.893Z,26.55
2022-12-25T07:56:42.693Z,49.45
2022-12-25T08:01:45.731Z,32.25
2022-12-25T08:06:48.437Z,22.63
2022-12-25T08:11:50.998Z,11.55
2022-12-25T08:16:53.579Z,29.30
2022-12-25T08:21:56.752Z,30.95
2022-12-25T08:26:59.307Z,25.13
2022-12-25T08:32:01.978Z,19.38
2022-12-25T08:37:04.618Z,14.02
2022-12-25T08:42:07.187Z,13.30
2022-12-25T08:47:10.359Z,7.38
2022-12-25T08:52:26.789Z,12.93
2022-12-25T08:57:49.720Z,6.10
2022-12-25T09:03:12.826Z,7.95
2022-12-25T09:08:35.716Z,5.60
2022-12-25T09:13:58.697Z,5.53
2022-12-25T09:19:21.684Z,9.60
2022-12-25T09:24:31.114Z,12.70
2022-12-25T09:29:33.668Z,16.52
2022-12-25T09:34:36.417Z,11.63
2022-12-25T09:39:45.922Z,10.18
2022-12-25T09:44:57.480Z,9.48
2022-12-25T09:50:18.992Z,6.85
2022-12-25T09:55:25.515Z,9.55
2022-12-25T10:00:51.037Z,7.18
2022-12-25T10:06:06.623Z,6.53
2022-12-25T10:11:32.930Z,5.03
2022-12-25T10:17:19.666Z,11.38
2022-12-25T10:22:41.987Z,10.65
2022-12-25T10:27:45.253Z,15.20
2022-12-25T10:32:48.744Z,16.48
2022-12-25T10:38:19.472Z,12.18
2022-12-25T10:43:42.370Z,16.40
2022-12-25T10:49:00.718Z,40.47
2022-12-25T10:54:20.171Z,10.48
2022-12-25T10:59:23.326Z,7.03
2022-12-25T11:04:28.796Z,7.95
2022-12-25T11:09:31.394Z,5.60
2022-12-25T11:14:34.012Z,5.53
2022-12-25T11:19:36.752Z,5.35
2022-12-25T11:24:39.339Z,4.32
2022-12-25T11:29:53.276Z,3.55
2022-12-25T11:34:56.958Z,5.07
2022-12-25T11:39:59.939Z,8.38
2022-12-25T11:45:17.162Z,13.07
2022-12-25T11:50:38.587Z,14.40
2022-12-25T11:55:45.838Z,6.25
2022-12-25T12:00:52.335Z,8.40
2022-12-25T12:06:25.947Z,4.95
2022-12-25T12:11:53.543Z,5.43
2022-12-25T12:16:56.217Z,4.70
2022-12-25T12:22:04.222Z,9.65
2022-12-25T12:27:23.550Z,6.80
2022-12-25T12:32:35.460Z,5.10
2022-12-25T12:37:40.596Z,8.65
2022-12-25T12:42:50.548Z,42.10
2022-12-25T12:47:54.039Z,45.03
2022-12-25T12:52:57.080Z,15.38
2022-12-25T12:58:02.914Z,21.52
2022-12-25T13:03:35.071Z,24.88
2022-12-25T13:08:51.598Z,30.85
2022-12-25T13:14:14.231Z,22.73
2022-12-25T13:19:27.622Z,18.08
2022-12-25T13:24:39.629Z,10.38
2022-12-25T13:29:45.796Z,12.93
2022-12-25T13:34:50.118Z,11.68
2022-12-25T13:39:59.971Z,12.13
2022-12-25T13:45:18.694Z,16.27
2022-12-25T13:50:31.466Z,28.15
2022-12-25T13:55:34.413Z,28.52
2022-12-25T14:00:49.675Z,27.60
2022-12-25T14:06:28.110Z,14.98
2022-12-25T14:11:32.358Z,16.70
2022-12-25T14:16:35.196Z,17.23
2022-12-25T14:21:41.809Z,31.75
2022-12-25T14:26:44.528Z,53.60
2022-12-25T14:31:48.042Z,30.40
2022-12-25T14:36:52.826Z,22.98
2022-12-25T14:41:55.523Z,16.83
2022-12-25T14:47:17.718Z,14.77
2022-12-25T14:52:22.166Z,11.80
2022-12-25T14:57:34.192Z,11.45
2022-12-25T15:02:45.783Z,9.05
2022-12-25T15:08:06.308Z,13.32
2022-12-25T15:13:08.929Z,18.90
2022-12-25T15:18:11.800Z,28.15
2022-12-25T15:23:20.351Z,20.65
2022-12-25T15:28:23.197Z,26.80
2022-12-25T15:33:25.733Z,32.30
2022-12-25T15:38:28.301Z,31.80
2022-12-25T15:43:46.175Z,64.25
2022-12-25T15:48:48.668Z,137.85
2022-12-25T15:53:51.189Z,74.50
2022-12-25T15:58:53.703Z,34.72
2022-12-25T16:03:56.424Z,30.40
2022-12-25T16:08:59.194Z,17.88
2022-12-25T16:14:01.788Z,21.92
2022-12-25T16:19:04.682Z,25.25
2022-12-25T16:24:07.864Z,20.17
2022-12-25T16:29:11.142Z,73.05
2022-12-25T16:34:13.789Z,71.80
2022-12-25T16:39:16.577Z,59.25
2022-12-25T16:44:19.330Z,44.35
2022-12-25T16:49:22.024Z,42.83
2022-12-25T16:54:24.601Z,25.77
2022-12-25T16:59:29.869Z,18.83
2022-12-25T17:04:32.503Z,9.75
2022-12-25T17:09:40.331Z,11.88
2022-12-25T17:14:46.440Z,11.20
2022-12-25T17:19:49.039Z,14.68
2022-12-25T17:24:51.618Z,8.65
2022-12-25T17:29:54.191Z,18.02
2022-12-25T17:34:56.820Z,9.75
2022-12-25T17:39:59.614Z,13.55
2022-12-25T17:45:02.924Z,10.52
2022-12-25T17:50:06.848Z,14.63
2022-12-25T17:55:09.974Z,15.67
2022-12-25T18:00:13.294Z,16.40
2022-12-25T18:05:15.907Z,17.80
2022-12-25T18:10:18.493Z,17.08
2022-12-25T18:15:21.292Z,11.52
2022-12-25T18:20:23.959Z,15.50
2022-12-25T18:25:26.626Z,13.50
2022-12-25T18:30:29.202Z,17.35
2022-12-25T18:35:31.844Z,14.25
2022-12-25T18:40:34.676Z,18.27
2022-12-25T18:45:37.840Z,19.05
2022-12-25T18:50:41.450Z,21.80
2022-12-25T18:55:44.025Z,16.88
2022-12-25T19:00:46.661Z,20.85
2022-12-25T19:05:49.272Z,20.80
2022-12-25T19:10:52.553Z,10.88
2022-12-25T19:15:59.524Z,13.73
2022-12-25T19:21:05.084Z,17.08
2022-12-25T19:26:09.857Z,26.75
2022-12-25T19:31:13.131Z,14.60
2022-12-25T19:36:16.921Z,10.45
2022-12-25T19:41:20.333Z,16.65
2022-12-25T19:46:32.025Z,14.73
2022-12-25T19:51:39.273Z,12.23
2022-12-25T19:56:42.366Z,14.82
2022-12-25T20:01:44.964Z,9.68
2022-12-25T20:06:47.736Z,13.00
2022-12-25T20:11:50.381Z,11.07
2022-12-25T20:16:52.987Z,8.43
2022-12-25T20:21:55.605Z,11.52
2022-12-25T20:26:59.503Z,6.60
2022-12-25T20:32:02.444Z,12.20
2022-12-25T20:37:05.098Z,7.40
2022-12-25T20:42:08.179Z,10.48
2022-12-25T20:47:10.740Z,16.90
2022-12-25T20:52:13.293Z,15.02
2022-12-25T20:57:15.872Z,18.98
2022-12-25T21:02:35.488Z,10.95
2022-12-25T21:07:39.277Z,13.32
2022-12-25T21:12:41.791Z,6.75
2022-12-25T21:17:44.370Z,7.57
2022-12-25T21:22:46.926Z,9.90
2022-12-25T21:27:49.450Z,9.52
2022-12-25T21:33:10.756Z,12.45
2022-12-25T21:38:13.835Z,9.20
2022-12-25T21:43:16.611Z,10.40
2022-12-25T21:48:19.116Z,15.45
2022-12-25T21:53:21.624Z,7.72
2022-12-25T21:58:24.464Z,12.05
2022-12-25T22:03:27.034Z,8.80
2022-12-25T22:08:33.535Z,8.10
2022-12-25T22:13:54.742Z,5.70
2022-12-25T22:19:16.025Z,7.25
2022-12-25T22:24:18.788Z,6.80
2022-12-25T22:29:21.350Z,8.98
2022-12-25T22:34:24.090Z,9.82
2022-12-25T22:39:28.849Z,7.40
2022-12-25T22:44:32.845Z,8.40
2022-12-25T22:49:35.482Z,7.17
2022-12-25T22:54:38.238Z,9.93
2022-12-25T22:59:40.844Z,4.65
2022-12-25T23:04:43.574Z,5.82
2022-12-25T23:09:46.571Z,7.38
2022-12-25T23:14:49.162Z,7.45
2022-12-25T23:20:20.788Z,5.80
2022-12-25T23:25:42.052Z,5.43
2022-12-25T23:30:44.743Z,7.95
2022-12-25T23:35:47.378Z,8.93
2022-12-25T23:40:53.058Z,8.38
2022-12-25T23:45:55.640Z,4.10
2022-12-25T23:51:04.609Z,7.60
2022-12-25T23:56:07.572Z,7.30
